createdAt,value
2019-03-31T00:02:30.706Z,15.27
2019-03-31T00:05:01.670Z,15.17
2019-03-31T00:07:32.347Z,15.23
2019-03-31T00:10:04.986Z,15.16
2019-03-31T00:12:35.776Z,15.15
2019-03-31T00:15:07.800Z,15.12
2019-03-31T00:17:38.552Z,14.98
2019-03-31T00:20:09.828Z,14.96
2019-03-31T00:22:40.552Z,14.97
2019-03-31T00:25:12.395Z,14.94
2019-03-31T00:27:43.161Z,14.89
2019-03-31T00:30:14.557Z,14.93
2019-03-31T00:32:45.485Z,14.92
2019-03-31T00:35:16.970Z,14.91
2019-03-31T00:37:47.704Z,14.87
2019-03-31T00:40:18.724Z,14.82
2019-03-31T00:42:49.604Z,14.74
2019-03-31T00:45:20.476Z,14.62
2019-03-31T00:47:51.666Z,14.49
2019-03-31T00:50:22.470Z,14.21
2019-03-31T00:52:53.247Z,14.42
2019-03-31T00:55:24.490Z,14.31
2019-03-31T00:57:55.599Z,14.44
2019-03-31T01:00:44.540Z,14.21
2019-03-31T01:03:15.857Z,14.33
2019-03-31T01:05:47.179Z,14.60
2019-03-31T01:08:18.869Z,14.19
2019-03-31T01:10:49.788Z,14.14
2019-03-31T01:13:21.144Z,14.07
2019-03-31T01:15:53.307Z,14.22
2019-03-31T01:18:24.072Z,13.89
2019-03-31T01:20:54.895Z,14.07
2019-03-31T01:23:25.906Z,14.19
2019-03-31T01:25:56.906Z,13.92
2019-03-31T01:28:27.955Z,13.84
2019-03-31T01:30:59.122Z,13.90
2019-03-31T01:33:29.964Z,13.82
2019-03-31T01:36:00.825Z,13.81
2019-03-31T01:38:31.979Z,13.86
2019-03-31T01:41:02.752Z,13.85
2019-03-31T01:43:33.772Z,13.77
2019-03-31T01:46:06.283Z,13.87
2019-03-31T01:48:37.222Z,13.73
2019-03-31T01:51:09.205Z,13.72
2019-03-31T01:53:40.401Z,13.86
2019-03-31T01:56:11.616Z,13.77
2019-03-31T01:58:42.539Z,13.70
2019-03-31T02:01:15.421Z,13.71
2019-03-31T02:03:46.185Z,13.49
2019-03-31T02:06:17.074Z,13.44
2019-03-31T02:08:47.991Z,13.46
2019-03-31T02:11:19.131Z,13.45
2019-03-31T02:13:49.827Z,13.42
2019-03-31T02:16:21.120Z,13.26
2019-03-31T02:18:52.230Z,13.33
2019-03-31T02:21:22.903Z,13.42
2019-03-31T02:23:53.602Z,13.62
2019-03-31T02:26:24.301Z,13.63
2019-03-31T02:28:55.630Z,13.62
2019-03-31T02:31:26.748Z,13.60
2019-03-31T02:33:57.453Z,13.52
2019-03-31T02:36:28.770Z,13.66
2019-03-31T02:39:00.064Z,13.54
2019-03-31T02:41:30.849Z,13.55
2019-03-31T02:44:02.515Z,13.52
2019-03-31T02:46:33.272Z,13.55
2019-03-31T02:49:04.288Z,13.59
2019-03-31T02:51:35.594Z,13.45
2019-03-31T02:54:06.547Z,13.39
2019-03-31T02:56:38.076Z,13.43
2019-03-31T02:59:09.772Z,13.30
2019-03-31T03:01:41.980Z,13.31
2019-03-31T03:04:14.667Z,13.22
2019-03-31T03:09:42.088Z,13.30
2019-03-31T03:12:13.686Z,13.26
2019-03-31T03:14:47.099Z,13.15
2019-03-31T03:17:17.866Z,13.31
2019-03-31T03:19:48.545Z,13.02
2019-03-31T03:22:19.227Z,12.93
2019-03-31T03:24:49.920Z,12.92
2019-03-31T03:27:20.658Z,13.07
2019-03-31T03:29:51.915Z,12.83
2019-03-31T03:32:22.690Z,13.10
2019-03-31T03:34:53.697Z,13.13
2019-03-31T03:37:25.029Z,12.88
2019-03-31T03:39:55.714Z,12.85
2019-03-31T03:42:27.495Z,12.83
2019-03-31T03:44:58.211Z,12.71
2019-03-31T03:47:28.897Z,12.71
2019-03-31T03:49:59.581Z,12.74
2019-03-31T03:52:30.259Z,12.63
2019-03-31T03:55:01.589Z,12.32
2019-03-31T03:57:32.273Z,12.16
2019-03-31T04:00:03.557Z,12.31
2019-03-31T04:02:34.242Z,12.35
2019-03-31T04:05:05.001Z,12.43
2019-03-31T04:07:35.680Z,12.28
2019-03-31T04:10:30.246Z,12.27
2019-03-31T04:13:01.165Z,12.27
2019-03-31T04:15:31.854Z,12.29
2019-03-31T04:18:02.842Z,12.26
2019-03-31T04:20:39.116Z,12.12
2019-03-31T04:23:07.316Z,12.06
2019-03-31T04:25:38.252Z,11.79
2019-03-31T04:28:09.016Z,11.70
2019-03-31T04:30:39.696Z,11.60
2019-03-31T04:33:10.385Z,11.54
2019-03-31T04:35:41.311Z,11.70
2019-03-31T04:38:11.989Z,11.59
2019-03-31T04:40:42.667Z,11.43
2019-03-31T04:43:14.659Z,11.63
2019-03-31T04:45:45.347Z,11.28
2019-03-31T04:48:16.679Z,11.46
2019-03-31T04:50:47.362Z,11.53
2019-03-31T04:53:18.269Z,11.63
2019-03-31T04:55:49.491Z,11.47
2019-03-31T04:58:20.350Z,11.68
2019-03-31T05:00:51.517Z,11.77
2019-03-31T05:03:22.694Z,11.81
2019-03-31T05:05:53.457Z,11.92
2019-03-31T05:08:24.871Z,11.86
2019-03-31T05:10:56.448Z,11.89
2019-03-31T05:13:27.103Z,11.75
2019-03-31T05:15:57.783Z,11.67
2019-03-31T05:18:28.472Z,11.72
2019-03-31T05:20:59.385Z,11.77
2019-03-31T05:23:30.090Z,11.42
2019-03-31T05:26:01.820Z,11.72
2019-03-31T05:28:32.738Z,11.57
2019-03-31T05:31:03.944Z,11.54
2019-03-31T05:33:34.696Z,11.26
2019-03-31T05:38:35.555Z,10.80
2019-03-31T05:41:06.534Z,11.05
2019-03-31T05:43:37.207Z,10.92
2019-03-31T05:46:07.908Z,10.62
2019-03-31T05:48:39.341Z,10.43
2019-03-31T05:51:10.664Z,10.53
2019-03-31T05:53:41.328Z,9.69
2019-03-31T05:56:12.048Z,9.31
2019-03-31T05:58:43.242Z,9.14
2019-03-31T06:01:14.162Z,9.23
2019-03-31T06:03:44.822Z,9.43
2019-03-31T06:06:16.559Z,9.42
2019-03-31T06:08:47.493Z,9.83
2019-03-31T06:11:18.381Z,9.36
2019-03-31T06:13:49.124Z,9.19
2019-03-31T06:16:19.867Z,9.14
2019-03-31T06:18:51.190Z,9.59
2019-03-31T06:21:22.424Z,9.43
2019-03-31T06:23:53.514Z,9.77
2019-03-31T06:26:24.414Z,9.60
2019-03-31T06:28:55.069Z,9.70
2019-03-31T06:31:25.950Z,9.99
2019-03-31T06:33:56.635Z,9.79
2019-03-31T06:36:28.020Z,10.25
2019-03-31T06:38:58.900Z,10.51
2019-03-31T06:41:29.735Z,10.98
2019-03-31T06:44:00.839Z,10.17
2019-03-31T06:46:31.511Z,10.30
2019-03-31T06:49:02.594Z,10.23
2019-03-31T06:51:33.276Z,10.53
2019-03-31T06:54:04.162Z,11.41
2019-03-31T06:56:34.822Z,10.56
2019-03-31T06:59:06.380Z,11.16
2019-03-31T07:01:37.867Z,11.49
2019-03-31T07:04:08.728Z,11.69
2019-03-31T07:06:39.387Z,11.31
2019-03-31T07:09:10.070Z,10.94
2019-03-31T07:11:41.183Z,11.19
2019-03-31T07:14:11.845Z,11.02
2019-03-31T07:16:42.497Z,10.53
2019-03-31T07:19:13.388Z,10.65
2019-03-31T07:21:44.296Z,11.01
2019-03-31T07:24:14.999Z,11.04
2019-03-31T07:26:46.147Z,11.50
2019-03-31T07:29:17.999Z,11.68
2019-03-31T07:31:48.667Z,11.31
2019-03-31T07:34:19.612Z,11.19
2019-03-31T07:36:50.797Z,10.79
2019-03-31T07:39:21.482Z,11.04
2019-03-31T07:41:56.211Z,11.16
2019-03-31T07:44:27.555Z,11.18
2019-03-31T07:46:58.877Z,11.23
2019-03-31T07:49:29.788Z,11.25
2019-03-31T07:52:00.892Z,10.51
2019-03-31T07:54:31.809Z,10.86
2019-03-31T07:57:02.959Z,11.04
2019-03-31T07:59:33.973Z,10.63
2019-03-31T08:02:08.132Z,10.79
2019-03-31T08:04:38.835Z,10.71
2019-03-31T08:07:09.516Z,10.55
2019-03-31T08:09:40.213Z,10.54
2019-03-31T08:12:11.550Z,11.26
2019-03-31T08:14:43.223Z,11.41
2019-03-31T08:17:19.056Z,10.87
2019-03-31T08:19:49.745Z,10.78
2019-03-31T08:22:20.401Z,11.28
2019-03-31T08:24:51.432Z,11.49
2019-03-31T08:27:22.519Z,11.48
2019-03-31T08:30:00.481Z,10.79
2019-03-31T08:32:28.376Z,11.12
2019-03-31T08:34:58.878Z,10.86
2019-03-31T08:37:29.869Z,10.62
2019-03-31T08:40:00.628Z,11.57
2019-03-31T08:42:31.312Z,11.69
2019-03-31T08:45:02.692Z,11.77
2019-03-31T08:47:33.630Z,11.77
2019-03-31T08:50:04.918Z,12.13
2019-03-31T08:52:36.090Z,12.12
2019-03-31T08:55:07.656Z,11.80
2019-03-31T08:57:38.352Z,11.93
2019-03-31T09:00:15.443Z,11.94
2019-03-31T09:02:46.204Z,11.83
2019-03-31T09:05:17.103Z,11.47
2019-03-31T09:07:48.221Z,11.30
2019-03-31T09:10:19.223Z,11.17
2019-03-31T09:12:50.568Z,11.21
2019-03-31T09:15:21.249Z,11.81
2019-03-31T09:17:54.247Z,11.68
2019-03-31T09:20:25.553Z,10.88
2019-03-31T09:22:56.536Z,10.54
2019-03-31T09:25:27.441Z,10.56
2019-03-31T09:27:58.668Z,10.38
2019-03-31T09:30:30.156Z,10.54
2019-03-31T09:33:00.858Z,10.83
2019-03-31T09:35:31.612Z,10.51
2019-03-31T09:38:02.596Z,10.52
2019-03-31T09:40:34.470Z,10.59
2019-03-31T09:43:05.493Z,10.96
2019-03-31T09:45:36.349Z,10.76
2019-03-31T09:48:07.214Z,10.58
2019-03-31T09:50:38.277Z,10.83
2019-03-31T09:53:09.908Z,10.88
2019-03-31T09:55:41.995Z,11.06
2019-03-31T09:58:12.759Z,11.13
2019-03-31T10:00:50.954Z,10.59
2019-03-31T10:03:22.797Z,10.60
2019-03-31T10:05:53.901Z,11.22
2019-03-31T10:08:24.813Z,11.19
2019-03-31T10:10:55.882Z,11.32
2019-03-31T10:13:27.142Z,11.75
2019-03-31T10:15:58.098Z,11.66
2019-03-31T10:18:28.772Z,11.54
2019-03-31T10:20:59.546Z,11.40
2019-03-31T10:23:30.651Z,12.21
2019-03-31T10:26:02.130Z,12.88
2019-03-31T10:28:33.573Z,12.50
2019-03-31T10:31:04.483Z,11.96
2019-03-31T10:33:35.520Z,12.04
2019-03-31T10:36:06.639Z,11.86
2019-03-31T10:38:37.351Z,11.62
2019-03-31T10:41:08.732Z,11.99
2019-03-31T10:43:39.859Z,12.34
2019-03-31T10:46:10.630Z,12.87
2019-03-31T10:48:41.838Z,12.42
2019-03-31T10:51:15.390Z,11.83
2019-03-31T10:53:47.878Z,11.62
2019-03-31T10:56:21.211Z,12.11
2019-03-31T10:58:52.664Z,12.97
2019-03-31T11:01:24.654Z,12.87
2019-03-31T11:03:57.440Z,13.32
2019-03-31T11:06:28.486Z,13.16
2019-03-31T11:08:59.916Z,13.37
2019-03-31T11:11:30.940Z,12.97
2019-03-31T11:14:03.708Z,12.79
2019-03-31T11:16:34.874Z,12.63
2019-03-31T11:19:06.676Z,12.98
2019-03-31T11:21:57.946Z,13.23
2019-03-31T11:24:29.571Z,13.32
2019-03-31T11:27:00.367Z,12.83
2019-03-31T11:29:32.237Z,13.48
2019-03-31T11:32:19.496Z,13.39
2019-03-31T11:34:57.851Z,12.75
2019-03-31T11:37:29.754Z,13.09
2019-03-31T11:40:02.722Z,13.93
2019-03-31T11:42:34.477Z,13.66
2019-03-31T11:45:05.875Z,12.99
2019-03-31T11:47:37.041Z,12.89
2019-03-31T11:50:09.725Z,12.35
2019-03-31T11:52:42.502Z,12.54
2019-03-31T11:55:13.895Z,12.96
2019-03-31T11:57:45.528Z,12.69
2019-03-31T12:00:18.397Z,13.28
2019-03-31T12:02:49.587Z,12.87
2019-03-31T12:05:20.590Z,13.29
2019-03-31T12:07:51.895Z,13.18
2019-03-31T12:10:23.176Z,13.08
2019-03-31T12:12:54.076Z,12.89
2019-03-31T12:15:25.158Z,12.90
2019-03-31T12:17:56.560Z,13.22
2019-03-31T12:20:27.345Z,13.21
2019-03-31T12:22:58.567Z,14.28
2019-03-31T12:25:29.678Z,14.25
2019-03-31T12:28:00.490Z,13.95
2019-03-31T12:30:31.717Z,14.16
2019-03-31T12:33:02.877Z,13.72
2019-03-31T12:35:34.022Z,13.96
2019-03-31T12:38:05.038Z,14.29
2019-03-31T12:40:37.291Z,14.97
2019-03-31T12:43:08.212Z,15.05
2019-03-31T12:45:39.195Z,14.16
2019-03-31T12:48:09.895Z,13.54
2019-03-31T12:50:40.628Z,13.28
2019-03-31T12:53:14.824Z,13.51
2019-03-31T12:55:59.190Z,13.65
2019-03-31T12:58:18.281Z,13.66
2019-03-31T13:00:49.507Z,13.89
2019-03-31T13:03:20.406Z,13.24
2019-03-31T13:05:51.151Z,13.05
2019-03-31T13:08:22.119Z,13.30
2019-03-31T13:10:53.319Z,13.71
2019-03-31T13:13:24.065Z,14.82
2019-03-31T13:15:55.365Z,13.95
2019-03-31T13:18:28.191Z,13.28
2019-03-31T13:20:59.202Z,12.82
2019-03-31T13:23:29.911Z,13.06
2019-03-31T13:26:01.004Z,13.20
2019-03-31T13:28:31.869Z,13.55
2019-03-31T13:31:02.786Z,13.56
2019-03-31T13:33:34.222Z,13.73
2019-03-31T13:36:08.390Z,13.49
2019-03-31T13:38:39.633Z,13.80
2019-03-31T13:41:12.893Z,13.73
2019-03-31T13:43:44.025Z,14.02
2019-03-31T13:46:15.573Z,13.10
2019-03-31T13:48:47.059Z,13.29
2019-03-31T13:51:18.258Z,13.68
2019-03-31T13:53:52.705Z,13.88
2019-03-31T13:56:24.043Z,13.85
2019-03-31T13:58:55.586Z,13.85
2019-03-31T14:01:31.951Z,13.64
2019-03-31T14:04:03.312Z,14.03
2019-03-31T14:06:40.755Z,13.57
2019-03-31T14:09:10.144Z,13.71
2019-03-31T14:11:44.262Z,14.11
2019-03-31T14:14:15.675Z,13.71
2019-03-31T14:16:46.798Z,13.24
2019-03-31T14:19:18.004Z,13.17
2019-03-31T14:21:49.323Z,13.59
2019-03-31T14:24:20.430Z,13.85
2019-03-31T14:26:51.640Z,14.34
2019-03-31T14:29:22.524Z,13.23
2019-03-31T14:31:53.875Z,12.97
2019-03-31T14:34:27.055Z,12.75
2019-03-31T14:36:57.878Z,12.63
2019-03-31T14:39:29.200Z,13.21
2019-03-31T14:42:09.503Z,13.14
2019-03-31T14:44:42.359Z,13.68
2019-03-31T14:47:13.182Z,13.46
2019-03-31T14:49:47.502Z,13.09
2019-03-31T14:52:27.314Z,12.76
2019-03-31T14:54:56.018Z,12.64
2019-03-31T14:57:27.543Z,12.57
2019-03-31T14:59:58.542Z,12.94
2019-03-31T15:02:29.450Z,12.91
2019-03-31T15:05:01.991Z,12.49
2019-03-31T15:07:34.359Z,12.88
2019-03-31T15:10:30.187Z,12.54
2019-03-31T15:13:05.217Z,12.53
2019-03-31T15:15:37.895Z,12.33
2019-03-31T15:18:44.697Z,12.46
2019-03-31T15:21:16.123Z,12.40
2019-03-31T15:23:50.564Z,12.54
2019-03-31T15:26:30.848Z,12.57
2019-03-31T15:29:03.436Z,12.49
2019-03-31T15:31:39.199Z,13.64
2019-03-31T15:34:10.761Z,12.43
2019-03-31T15:36:49.916Z,12.47
2019-03-31T15:39:23.717Z,12.04
2019-03-31T15:41:59.990Z,11.95
2019-03-31T15:44:32.714Z,11.94
2019-03-31T15:47:06.367Z,11.70
2019-03-31T15:49:51.566Z,12.17
2019-03-31T15:52:37.842Z,12.02
2019-03-31T15:55:19.189Z,11.97
2019-03-31T15:57:53.217Z,11.93
2019-03-31T16:00:26.596Z,11.98
2019-03-31T16:03:03.426Z,12.05
2019-03-31T16:05:42.755Z,11.77
2019-03-31T16:08:17.466Z,12.00
2019-03-31T16:10:49.771Z,11.93
2019-03-31T16:13:22.351Z,11.67
2019-03-31T16:15:52.861Z,11.85
2019-03-31T16:22:17.298Z,11.83
2019-03-31T16:30:09.713Z,11.97
2019-03-31T16:43:20.279Z,11.52
2019-03-31T16:47:04.377Z,12.13
2019-03-31T16:49:40.880Z,12.20
2019-03-31T16:52:28.055Z,11.46
2019-03-31T16:54:59.749Z,11.45
2019-03-31T16:57:30.086Z,11.69
2019-03-31T17:00:05.718Z,11.70
2019-03-31T17:02:36.853Z,11.49
2019-03-31T17:05:21.183Z,11.31
2019-03-31T17:07:42.112Z,11.55
2019-03-31T17:10:26.080Z,11.50
2019-03-31T17:12:56.529Z,11.14
2019-03-31T17:15:26.850Z,11.47
2019-03-31T17:17:57.813Z,11.18
2019-03-31T17:20:28.265Z,11.33
2019-03-31T17:22:58.869Z,11.24
2019-03-31T17:25:29.324Z,11.17
2019-03-31T17:28:00.101Z,10.93
2019-03-31T17:30:30.607Z,11.09
2019-03-31T17:33:01.100Z,11.38
2019-03-31T17:35:31.287Z,11.16
2019-03-31T17:38:04.570Z,11.26
2019-03-31T17:40:36.004Z,10.96
2019-03-31T17:43:08.171Z,11.10
2019-03-31T17:45:39.580Z,11.41
2019-03-31T17:48:10.363Z,11.04
2019-03-31T17:50:40.890Z,10.84
2019-03-31T17:53:11.363Z,10.86
2019-03-31T17:55:41.990Z,10.47
2019-03-31T17:58:14.878Z,10.44
2019-03-31T18:00:45.014Z,10.46
2019-03-31T18:03:15.783Z,10.76
2019-03-31T18:05:46.041Z,10.32
2019-03-31T18:08:16.110Z,10.62
2019-03-31T18:10:46.997Z,10.42
2019-03-31T18:13:17.083Z,10.30
2019-03-31T18:15:48.773Z,10.55
2019-03-31T18:18:19.206Z,10.36
2019-03-31T18:20:49.156Z,10.24
2019-03-31T18:23:19.135Z,10.44
2019-03-31T18:25:49.375Z,10.16
2019-03-31T18:28:19.406Z,10.38
2019-03-31T18:30:49.680Z,10.21
2019-03-31T18:33:20.052Z,10.35
2019-03-31T18:35:50.057Z,10.19
2019-03-31T18:38:20.961Z,10.18
2019-03-31T18:40:51.528Z,10.07
2019-03-31T18:43:21.529Z,10.14
2019-03-31T18:45:51.512Z,10.00
2019-03-31T18:48:22.489Z,10.09
2019-03-31T18:50:53.041Z,9.73
2019-03-31T18:53:42.817Z,9.68
2019-03-31T18:56:19.600Z,9.54
2019-03-31T18:59:00.639Z,9.63
2019-03-31T19:01:38.692Z,9.67
2019-03-31T19:04:26.684Z,9.55
2019-03-31T19:07:16.246Z,9.52
2019-03-31T19:09:53.390Z,10.00
2019-03-31T19:12:30.701Z,9.71
2019-03-31T19:15:11.814Z,9.62
2019-03-31T19:17:51.369Z,9.86
2019-03-31T19:20:39.383Z,9.59
2019-03-31T19:23:29.696Z,9.87
2019-03-31T19:26:11.197Z,9.36
2019-03-31T19:28:48.036Z,9.64
2019-03-31T19:31:36.325Z,9.44
2019-03-31T19:34:25.291Z,9.56
2019-03-31T19:37:07.256Z,9.30
2019-03-31T19:40:02.310Z,9.16
2019-03-31T19:42:53.993Z,9.48
2019-03-31T19:45:30.703Z,9.24
2019-03-31T19:48:21.614Z,9.03
2019-03-31T19:51:16.666Z,8.61
2019-03-31T19:53:55.056Z,8.71
2019-03-31T19:56:42.458Z,8.97
2019-03-31T19:59:46.334Z,9.01
2019-03-31T20:02:28.393Z,8.87
2019-03-31T20:05:26.765Z,9.01
2019-03-31T20:08:23.212Z,8.82
2019-03-31T20:11:18.234Z,8.96
2019-03-31T20:14:13.643Z,9.14
2019-03-31T20:17:02.558Z,9.18
2019-03-31T20:19:42.633Z,8.96
2019-03-31T20:22:18.359Z,8.56
2019-03-31T20:25:11.816Z,8.10
2019-03-31T20:28:04.062Z,8.52
2019-03-31T20:30:59.674Z,8.24
2019-03-31T20:33:52.339Z,8.13
2019-03-31T20:36:30.708Z,8.22
2019-03-31T20:39:22.714Z,7.76
2019-03-31T20:42:08.964Z,8.10
2019-03-31T20:44:38.955Z,8.14
2019-03-31T20:47:08.839Z,8.22
2019-03-31T20:49:40.592Z,8.24
2019-03-31T20:52:10.641Z,8.17
2019-03-31T20:54:41.448Z,8.03
2019-03-31T20:57:12.584Z,8.02
2019-03-31T20:59:42.956Z,8.34
2019-03-31T21:02:13.173Z,7.94
2019-03-31T21:04:44.797Z,8.03
2019-03-31T21:07:14.732Z,7.76
2019-03-31T21:09:45.499Z,7.59
2019-03-31T21:12:16.135Z,8.06
2019-03-31T21:14:49.148Z,8.32
2019-03-31T21:17:19.275Z,8.52
2019-03-31T21:19:51.378Z,8.06
2019-03-31T21:22:21.878Z,8.09
2019-03-31T21:24:52.964Z,8.10
2019-03-31T21:27:23.102Z,8.34
2019-03-31T21:29:54.171Z,8.46
2019-03-31T21:32:25.611Z,7.39
2019-03-31T21:34:56.297Z,7.62
2019-03-31T21:37:26.705Z,8.18
2019-03-31T21:39:58.192Z,7.88
2019-03-31T21:42:28.450Z,7.32
2019-03-31T21:45:00.468Z,7.29
2019-03-31T21:47:30.698Z,7.64
2019-03-31T21:50:01.535Z,7.20
2019-03-31T21:52:32.151Z,6.99
2019-03-31T21:55:02.507Z,7.08
2019-03-31T21:57:32.857Z,7.41
2019-03-31T22:00:02.807Z,7.44
2019-03-31T22:02:33.692Z,7.96
2019-03-31T22:05:03.817Z,8.09
2019-03-31T22:07:34.022Z,7.89
2019-03-31T22:10:04.394Z,7.61
2019-03-31T22:12:34.333Z,8.12
2019-03-31T22:15:04.781Z,7.96
2019-03-31T22:17:39.765Z,7.37
2019-03-31T22:20:10.339Z,7.62
2019-03-31T22:22:40.991Z,7.18
2019-03-31T22:25:12.515Z,6.98
2019-03-31T22:27:42.442Z,7.34
2019-03-31T22:30:12.584Z,7.31
2019-03-31T22:32:42.460Z,7.60
2019-03-31T22:35:12.501Z,8.26
2019-03-31T22:37:42.622Z,7.63
2019-03-31T22:40:12.942Z,7.54
2019-03-31T22:42:42.880Z,7.50
2019-03-31T22:45:12.901Z,7.61
2019-03-31T22:47:42.775Z,8.13
2019-03-31T22:50:13.179Z,8.37
2019-03-31T22:52:43.272Z,7.43
2019-03-31T22:55:13.315Z,6.42
2019-03-31T22:57:43.597Z,6.38
2019-03-31T23:00:20.121Z,6.50
2019-03-31T23:02:50.199Z,6.77
2019-03-31T23:05:20.314Z,6.40
2019-03-31T23:07:50.211Z,6.18
2019-03-31T23:10:20.264Z,6.45
2019-03-31T23:12:50.376Z,6.97
2019-03-31T23:15:20.480Z,7.29
2019-03-31T23:17:50.682Z,7.09
2019-03-31T23:20:20.642Z,7.12
2019-03-31T23:22:50.530Z,7.62
2019-03-31T23:25:20.646Z,7.21
2019-03-31T23:27:50.653Z,6.53
2019-03-31T23:30:20.776Z,7.32
2019-03-31T23:32:52.013Z,7.67
2019-03-31T23:35:22.004Z,7.36
2019-03-31T23:37:52.063Z,7.41
2019-03-31T23:40:22.194Z,7.60
2019-03-31T23:42:52.392Z,7.35
2019-03-31T23:45:22.570Z,6.89
2019-03-31T23:47:52.490Z,6.87
2019-03-31T23:50:22.615Z,6.72
2019-03-31T23:52:52.806Z,7.42
2019-03-31T23:55:22.739Z,7.62
2019-03-31T23:57:52.706Z,7.74
